createdAt,value
2018-10-06T00:01:26.549Z,6.40
2018-10-06T00:03:54.773Z,6.40
2018-10-06T00:06:23.016Z,6.50
2018-10-06T00:08:51.228Z,6.40
2018-10-06T00:11:19.451Z,6.40
2018-10-06T00:13:47.663Z,6.30
2018-10-06T00:16:15.868Z,6.30
2018-10-06T00:18:44.141Z,6.40
2018-10-06T00:21:12.357Z,6.20
2018-10-06T00:23:40.580Z,6.20
2018-10-06T00:26:08.833Z,6.10
2018-10-06T00:28:37.041Z,6.00
2018-10-06T00:31:05.274Z,6.00
2018-10-06T00:33:33.521Z,6.00
2018-10-06T00:36:01.755Z,5.90
2018-10-06T00:38:29.960Z,6.00
2018-10-06T00:40:58.181Z,6.00
2018-10-06T00:43:26.400Z,6.10
2018-10-06T00:45:54.616Z,6.00
2018-10-06T00:48:22.837Z,6.00
2018-10-06T00:50:51.044Z,5.90
2018-10-06T00:53:19.257Z,5.90
2018-10-06T00:55:47.462Z,5.90
2018-10-06T00:58:15.673Z,5.80
2018-10-06T01:00:43.893Z,5.80
2018-10-06T01:03:12.112Z,5.80
2018-10-06T01:05:40.330Z,5.80
2018-10-06T01:08:08.614Z,5.80
2018-10-06T01:10:36.834Z,5.80
2018-10-06T01:13:05.052Z,5.80
2018-10-06T01:15:33.260Z,5.70
2018-10-06T01:18:01.469Z,5.70
2018-10-06T01:20:29.899Z,5.70
2018-10-06T01:22:58.113Z,5.60
2018-10-06T01:25:26.312Z,5.70
2018-10-06T01:27:54.548Z,5.60
2018-10-06T01:30:22.736Z,5.80
2018-10-06T01:32:50.942Z,5.90
2018-10-06T01:35:19.132Z,5.80
2018-10-06T01:37:47.345Z,5.90
2018-10-06T01:40:15.552Z,5.90
2018-10-06T01:42:43.857Z,6.00
2018-10-06T01:45:12.077Z,6.10
2018-10-06T01:47:40.286Z,6.10
2018-10-06T01:50:08.505Z,6.10
2018-10-06T01:52:36.706Z,6.00
2018-10-06T01:55:04.909Z,6.00
2018-10-06T01:57:33.116Z,5.90
2018-10-06T02:00:01.317Z,6.00
2018-10-06T02:02:29.550Z,6.00
2018-10-06T02:04:57.753Z,6.10
2018-10-06T02:07:25.949Z,6.10
2018-10-06T02:09:54.244Z,6.10
2018-10-06T02:12:22.445Z,6.10
2018-10-06T02:14:50.644Z,6.10
2018-10-06T02:17:18.849Z,6.00
2018-10-06T02:19:47.049Z,6.00
2018-10-06T02:22:15.244Z,6.00
2018-10-06T02:24:43.440Z,6.00
2018-10-06T02:27:11.645Z,5.90
2018-10-06T02:29:39.851Z,5.90
2018-10-06T02:32:08.166Z,5.80
2018-10-06T02:34:36.370Z,5.80
2018-10-06T02:37:04.577Z,5.80
2018-10-06T02:39:32.786Z,5.80
2018-10-06T02:42:01.000Z,5.80
2018-10-06T02:44:29.212Z,5.80
2018-10-06T02:46:57.432Z,5.70
2018-10-06T02:49:25.651Z,5.60
2018-10-06T02:51:53.957Z,5.60
2018-10-06T02:54:22.252Z,5.70
2018-10-06T02:56:50.484Z,5.60
2018-10-06T02:59:18.691Z,5.70
2018-10-06T03:01:46.876Z,5.60
2018-10-06T03:04:15.081Z,5.50
2018-10-06T03:06:43.313Z,5.50
2018-10-06T03:09:11.613Z,5.40
2018-10-06T03:11:39.837Z,5.50
2018-10-06T03:14:08.049Z,5.50
2018-10-06T03:16:36.279Z,5.60
2018-10-06T03:19:04.486Z,5.70
2018-10-06T03:21:32.711Z,5.60
2018-10-06T03:24:00.921Z,5.50
2018-10-06T03:26:29.136Z,5.40
2018-10-06T03:28:57.360Z,5.40
2018-10-06T03:31:25.634Z,5.40
2018-10-06T03:33:53.866Z,5.40
2018-10-06T03:36:22.090Z,5.30
2018-10-06T03:38:50.297Z,5.30
2018-10-06T03:41:18.524Z,5.30
2018-10-06T03:43:46.732Z,5.50
2018-10-06T03:46:14.961Z,5.50
2018-10-06T03:48:43.164Z,5.40
2018-10-06T03:51:11.384Z,5.30
2018-10-06T03:53:39.684Z,5.30
2018-10-06T03:56:07.904Z,5.40
2018-10-06T03:58:36.109Z,5.40
2018-10-06T04:01:04.328Z,5.40
2018-10-06T04:03:32.540Z,5.50
2018-10-06T04:06:00.756Z,5.60
2018-10-06T04:08:28.972Z,5.70
2018-10-06T04:10:57.196Z,5.60
2018-10-06T04:13:25.405Z,5.60
2018-10-06T04:15:53.659Z,5.60
2018-10-06T04:18:21.937Z,5.60
2018-10-06T04:20:50.154Z,5.50
2018-10-06T04:23:18.363Z,5.50
2018-10-06T04:25:46.636Z,5.60
2018-10-06T04:28:15.002Z,5.50
2018-10-06T04:30:43.221Z,5.50
2018-10-06T04:33:11.453Z,5.50
2018-10-06T04:35:40.084Z,5.40
2018-10-06T04:38:08.308Z,5.40
2018-10-06T04:40:36.529Z,5.40
2018-10-06T04:43:04.765Z,5.40
2018-10-06T04:45:32.996Z,5.40
2018-10-06T04:48:01.224Z,5.40
2018-10-06T04:50:29.448Z,5.30
2018-10-06T04:52:57.768Z,5.30
2018-10-06T04:55:26.116Z,5.30
2018-10-06T04:57:54.641Z,5.20
2018-10-06T05:00:25.446Z,5.20
2018-10-06T05:02:53.769Z,5.20
2018-10-06T05:05:23.394Z,5.30
2018-10-06T05:07:51.640Z,5.30
2018-10-06T05:10:19.960Z,5.20
2018-10-06T05:12:48.194Z,5.30
2018-10-06T05:15:16.411Z,5.40
2018-10-06T05:17:44.650Z,5.40
2018-10-06T05:20:12.922Z,5.30
2018-10-06T05:22:41.145Z,5.40
2018-10-06T05:25:09.357Z,5.30
2018-10-06T05:27:37.584Z,5.20
2018-10-06T05:30:05.876Z,5.20
2018-10-06T05:32:34.241Z,5.10
2018-10-06T05:35:02.466Z,5.10
2018-10-06T05:37:30.706Z,5.10
2018-10-06T05:39:58.924Z,5.20
2018-10-06T05:42:27.145Z,5.20
2018-10-06T05:44:55.373Z,5.20
2018-10-06T05:47:23.667Z,5.30
2018-10-06T05:49:51.917Z,5.30
2018-10-06T05:52:20.196Z,5.30
2018-10-06T05:54:48.432Z,5.40
2018-10-06T05:57:16.753Z,5.50
2018-10-06T05:59:45.005Z,5.60
2018-10-06T06:02:13.230Z,5.70
2018-10-06T06:04:41.560Z,5.80
2018-10-06T06:07:09.821Z,5.90
2018-10-06T06:09:38.060Z,5.90
2018-10-06T06:12:06.569Z,6.00
2018-10-06T06:14:34.809Z,6.10
2018-10-06T06:17:03.030Z,6.20
2018-10-06T06:19:31.241Z,6.40
2018-10-06T06:21:59.518Z,6.50
2018-10-06T06:24:27.785Z,6.50
2018-10-06T06:26:56.092Z,6.60
2018-10-06T06:29:24.464Z,6.80
2018-10-06T06:31:53.038Z,6.90
2018-10-06T06:34:21.325Z,6.90
2018-10-06T06:36:49.620Z,6.90
2018-10-06T06:39:18.266Z,7.10
2018-10-06T06:41:46.509Z,7.20
2018-10-06T06:44:14.784Z,7.40
2018-10-06T06:46:43.006Z,7.60
2018-10-06T06:49:11.230Z,7.70
2018-10-06T06:51:39.438Z,7.80
2018-10-06T06:54:07.655Z,7.90
2018-10-06T06:56:35.989Z,8.10
2018-10-06T06:59:04.249Z,8.40
2018-10-06T07:01:32.473Z,8.50
2018-10-06T07:04:00.770Z,8.50
2018-10-06T07:06:31.875Z,8.40
2018-10-06T07:09:00.125Z,8.60
2018-10-06T07:11:28.341Z,9.00
2018-10-06T07:13:56.554Z,9.00
2018-10-06T07:16:24.850Z,9.40
2018-10-06T07:18:53.141Z,9.60
2018-10-06T07:21:21.397Z,9.80
2018-10-06T07:23:49.638Z,10.10
2018-10-06T07:26:17.958Z,10.70
2018-10-06T07:28:46.186Z,11.10
2018-10-06T07:31:14.521Z,12.50
2018-10-06T07:33:42.741Z,13.00
2018-10-06T07:36:11.049Z,14.30
2018-10-06T07:38:39.252Z,15.00
2018-10-06T07:41:07.444Z,15.50
2018-10-06T07:43:35.661Z,16.90
2018-10-06T07:46:03.877Z,18.50
2018-10-06T07:48:32.077Z,19.30
2018-10-06T07:51:00.339Z,20.30
2018-10-06T07:53:28.546Z,20.30
2018-10-06T07:55:56.853Z,21.70
2018-10-06T07:58:25.055Z,23.00
2018-10-06T08:00:53.282Z,23.80
2018-10-06T08:03:21.745Z,24.60
2018-10-06T08:05:50.189Z,25.70
2018-10-06T08:08:18.485Z,26.00
2018-10-06T08:10:46.917Z,25.30
2018-10-06T08:13:15.134Z,26.80
2018-10-06T08:15:43.352Z,28.00
2018-10-06T08:18:11.601Z,27.80
2018-10-06T08:20:41.061Z,28.50
2018-10-06T08:23:09.297Z,28.80
2018-10-06T08:25:37.509Z,28.20
2018-10-06T08:28:05.766Z,26.70
2018-10-06T08:30:33.973Z,25.80
2018-10-06T08:33:02.220Z,25.30
2018-10-06T08:35:30.441Z,26.10
2018-10-06T08:37:58.658Z,25.20
2018-10-06T08:40:26.898Z,24.80
2018-10-06T08:42:55.224Z,25.50
2018-10-06T08:45:23.399Z,26.40
2018-10-06T08:47:51.665Z,26.80
2018-10-06T08:50:19.887Z,27.60
2018-10-06T08:52:48.113Z,28.00
2018-10-06T08:55:16.389Z,28.70
2018-10-06T08:57:44.627Z,30.10
2018-10-06T09:00:12.834Z,30.80
2018-10-06T09:02:41.057Z,31.40
2018-10-06T09:05:09.289Z,32.40
2018-10-06T09:07:37.555Z,32.50
2018-10-06T09:10:05.845Z,31.80
2018-10-06T09:12:34.124Z,31.40
2018-10-06T09:15:02.369Z,32.10
2018-10-06T09:17:30.625Z,31.20
2018-10-06T09:19:58.998Z,31.10
2018-10-06T09:22:27.271Z,31.60
2018-10-06T09:24:55.585Z,31.90
2018-10-06T09:27:23.817Z,32.30
2018-10-06T09:29:52.069Z,33.40
2018-10-06T09:32:20.312Z,33.50
2018-10-06T09:34:48.544Z,34.50
2018-10-06T09:37:16.864Z,34.30
2018-10-06T09:39:45.126Z,34.70
2018-10-06T09:42:16.395Z,35.50
2018-10-06T09:44:44.661Z,35.00
2018-10-06T09:47:12.884Z,34.90
2018-10-06T09:49:41.106Z,34.80
2018-10-06T09:52:09.393Z,31.80
2018-10-06T09:54:37.629Z,30.40
2018-10-06T09:57:05.945Z,28.90
2018-10-06T09:59:34.262Z,27.80
2018-10-06T10:02:04.464Z,26.20
2018-10-06T10:04:32.710Z,25.50
2018-10-06T10:07:01.009Z,26.40
2018-10-06T10:09:29.336Z,29.10
2018-10-06T10:11:57.553Z,29.70
2018-10-06T10:14:25.784Z,29.30
2018-10-06T10:16:54.127Z,29.20
2018-10-06T10:19:22.290Z,29.00
2018-10-06T10:21:50.611Z,27.30
2018-10-06T10:24:19.061Z,26.50
2018-10-06T10:26:47.444Z,26.80
2018-10-06T10:29:15.804Z,26.80
2018-10-06T10:31:44.036Z,26.70
2018-10-06T10:34:12.256Z,28.10
2018-10-06T10:36:40.481Z,28.10
2018-10-06T10:39:08.755Z,29.00
2018-10-06T10:41:36.927Z,27.60
2018-10-06T10:44:05.213Z,26.80
2018-10-06T10:46:33.401Z,25.30
2018-10-06T10:49:01.669Z,24.30
2018-10-06T10:51:30.170Z,23.80
2018-10-06T10:53:58.432Z,23.70
2018-10-06T10:56:26.692Z,23.40
2018-10-06T10:58:54.961Z,23.30
2018-10-06T11:01:23.221Z,23.50
2018-10-06T11:03:51.491Z,23.30
2018-10-06T11:06:19.712Z,23.60
2018-10-06T11:08:47.925Z,24.60
2018-10-06T11:11:16.509Z,25.50
2018-10-06T11:13:45.989Z,26.60
2018-10-06T11:16:14.228Z,27.70
2018-10-06T11:18:42.619Z,27.00
2018-10-06T11:21:10.879Z,27.40
2018-10-06T11:23:39.122Z,27.60
2018-10-06T11:26:07.364Z,27.70
2018-10-06T11:28:35.589Z,28.30
2018-10-06T11:31:03.837Z,28.40
2018-10-06T11:33:32.040Z,28.60
2018-10-06T11:36:00.253Z,28.90
2018-10-06T11:38:28.490Z,28.10
2018-10-06T11:40:56.702Z,27.30
2018-10-06T11:43:24.910Z,26.90
2018-10-06T11:45:53.121Z,27.10
2018-10-06T11:48:21.330Z,27.00
2018-10-06T11:50:49.559Z,27.10
2018-10-06T11:53:18.128Z,26.10
2018-10-06T11:55:46.349Z,26.00
2018-10-06T11:58:14.563Z,26.00
2018-10-06T12:00:42.902Z,26.20
2018-10-06T12:03:11.092Z,25.80
2018-10-06T12:05:39.369Z,25.80
2018-10-06T12:08:07.625Z,25.90
2018-10-06T12:10:35.851Z,25.80
2018-10-06T12:13:04.090Z,25.40
2018-10-06T12:15:32.321Z,24.70
2018-10-06T12:18:00.565Z,24.40
2018-10-06T12:20:28.798Z,24.50
2018-10-06T12:22:57.089Z,24.60
2018-10-06T12:25:25.517Z,24.90
2018-10-06T12:27:53.803Z,24.80
2018-10-06T12:30:22.170Z,25.00
2018-10-06T12:32:50.901Z,25.20
2018-10-06T12:35:19.605Z,24.70
2018-10-06T12:37:47.857Z,24.20
2018-10-06T12:40:16.276Z,24.10
2018-10-06T12:42:44.504Z,23.90
2018-10-06T12:45:12.741Z,24.00
2018-10-06T12:47:40.965Z,24.20
2018-10-06T12:50:09.189Z,24.50
2018-10-06T12:52:37.697Z,24.50
2018-10-06T12:55:05.963Z,24.70
2018-10-06T12:57:34.342Z,25.20
2018-10-06T13:00:02.705Z,25.20
2018-10-06T13:02:30.902Z,25.20
2018-10-06T13:04:59.519Z,24.70
2018-10-06T13:07:27.721Z,24.70
2018-10-06T13:09:55.953Z,24.40
2018-10-06T13:12:24.202Z,24.40
2018-10-06T13:14:52.409Z,24.50
2018-10-06T13:17:20.620Z,24.50
2018-10-06T13:19:48.837Z,24.60
2018-10-06T13:22:17.037Z,24.60
2018-10-06T13:24:45.337Z,24.70
2018-10-06T13:27:13.532Z,25.20
2018-10-06T13:29:41.754Z,25.10
2018-10-06T13:32:09.961Z,25.30
2018-10-06T13:34:38.189Z,25.40
2018-10-06T13:37:06.470Z,25.50
2018-10-06T13:39:34.677Z,25.40
2018-10-06T13:42:02.886Z,25.00
2018-10-06T13:44:31.117Z,24.70
2018-10-06T13:46:59.425Z,24.70
2018-10-06T13:49:27.666Z,24.70
2018-10-06T13:51:55.881Z,24.90
2018-10-06T13:54:24.091Z,24.80
2018-10-06T13:56:52.301Z,24.70
2018-10-06T13:59:20.498Z,24.60
2018-10-06T14:01:48.717Z,24.30
2018-10-06T14:04:16.935Z,24.00
2018-10-06T14:06:45.173Z,23.80
2018-10-06T14:09:13.391Z,23.70
2018-10-06T14:11:41.624Z,23.60
2018-10-06T14:14:09.845Z,23.60
2018-10-06T14:16:38.165Z,23.50
2018-10-06T14:19:06.683Z,23.50
2018-10-06T14:21:34.901Z,23.50
2018-10-06T14:24:03.129Z,23.50
2018-10-06T14:26:31.387Z,23.70
2018-10-06T14:28:59.598Z,23.70
2018-10-06T14:31:27.829Z,23.70
2018-10-06T14:33:56.061Z,23.60
2018-10-06T14:36:24.281Z,23.60
2018-10-06T14:38:52.491Z,23.60
2018-10-06T14:41:21.300Z,23.60
2018-10-06T14:43:49.525Z,23.70
2018-10-06T14:46:17.749Z,23.60
2018-10-06T14:48:45.985Z,23.60
2018-10-06T14:51:14.201Z,23.70
2018-10-06T14:53:42.429Z,23.60
2018-10-06T14:56:10.657Z,23.60
2018-10-06T14:58:38.896Z,23.70
2018-10-06T15:01:07.265Z,23.60
2018-10-06T15:03:35.501Z,23.60
2018-10-06T15:06:03.736Z,23.60
2018-10-06T15:08:31.969Z,23.50
2018-10-06T15:11:00.181Z,23.50
2018-10-06T15:13:28.396Z,23.40
2018-10-06T15:15:56.669Z,23.40
2018-10-06T15:18:24.853Z,23.30
2018-10-06T15:20:53.068Z,23.30
2018-10-06T15:23:21.268Z,23.20
2018-10-06T15:25:49.478Z,23.20
2018-10-06T15:28:17.728Z,23.10
2018-10-06T15:30:45.945Z,23.00
2018-10-06T15:33:14.157Z,22.90
2018-10-06T15:35:42.389Z,22.90
2018-10-06T15:38:10.625Z,22.80
2018-10-06T15:40:38.938Z,22.70
2018-10-06T15:43:07.157Z,22.60
2018-10-06T15:45:35.381Z,22.50
2018-10-06T15:48:03.617Z,22.40
2018-10-06T15:50:31.837Z,22.20
2018-10-06T15:53:00.074Z,22.10
2018-10-06T15:55:28.299Z,22.00
2018-10-06T15:57:56.524Z,21.90
2018-10-06T16:00:24.769Z,21.80
2018-10-06T16:02:53.060Z,21.70
2018-10-06T16:05:21.256Z,21.60
2018-10-06T16:07:49.509Z,21.50
2018-10-06T16:10:17.743Z,21.40
2018-10-06T16:12:45.981Z,21.20
2018-10-06T16:15:14.246Z,21.10
2018-10-06T16:17:42.464Z,21.00
2018-10-06T16:20:10.702Z,20.90
2018-10-06T16:22:38.954Z,20.80
2018-10-06T16:25:07.197Z,20.80
2018-10-06T16:27:35.516Z,20.70
2018-10-06T16:30:03.806Z,20.60
2018-10-06T16:32:32.028Z,20.60
2018-10-06T16:35:00.264Z,20.50
2018-10-06T16:37:29.954Z,20.30
2018-10-06T16:39:58.290Z,20.20
2018-10-06T16:42:26.586Z,20.10
2018-10-06T16:44:54.856Z,20.00
2018-10-06T16:47:23.085Z,19.90
2018-10-06T16:49:51.329Z,19.90
2018-10-06T16:52:19.579Z,19.90
2018-10-06T16:54:47.809Z,20.00
2018-10-06T16:57:16.125Z,19.90
2018-10-06T16:59:44.352Z,19.90
2018-10-06T17:02:12.659Z,20.00
2018-10-06T17:04:40.860Z,20.00
2018-10-06T17:07:09.102Z,20.00
2018-10-06T17:09:37.319Z,20.00
2018-10-06T17:12:05.569Z,19.90
2018-10-06T17:14:33.792Z,19.90
2018-10-06T17:17:02.020Z,19.90
2018-10-06T17:19:30.263Z,19.90
2018-10-06T17:21:58.549Z,19.90
2018-10-06T17:24:26.904Z,19.80
2018-10-06T17:26:55.081Z,19.70
2018-10-06T17:29:23.330Z,19.60
2018-10-06T17:31:51.570Z,19.60
2018-10-06T17:34:19.823Z,19.40
2018-10-06T17:36:48.058Z,19.30
2018-10-06T17:39:16.289Z,19.20
2018-10-06T17:41:44.519Z,19.00
2018-10-06T17:44:12.789Z,18.90
2018-10-06T17:46:41.046Z,18.70
2018-10-06T17:49:09.276Z,18.50
2018-10-06T17:51:37.522Z,18.40
2018-10-06T17:54:05.802Z,18.30
2018-10-06T17:56:34.050Z,18.20
2018-10-06T17:59:02.361Z,18.10
2018-10-06T18:01:30.526Z,18.00
2018-10-06T18:03:58.760Z,17.90
2018-10-06T18:06:27.072Z,17.90
2018-10-06T18:08:55.410Z,17.80
2018-10-06T18:11:23.645Z,17.80
2018-10-06T18:13:51.885Z,17.70
2018-10-06T18:16:20.149Z,17.70
2018-10-06T18:18:48.450Z,17.70
2018-10-06T18:21:16.772Z,17.60
2018-10-06T18:23:44.996Z,17.50
2018-10-06T18:26:13.305Z,17.50
2018-10-06T18:28:41.531Z,17.40
2018-10-06T18:31:09.825Z,17.30
2018-10-06T18:33:38.069Z,17.20
2018-10-06T18:36:06.814Z,17.20
2018-10-06T18:38:35.090Z,17.10
2018-10-06T18:41:03.371Z,17.00
2018-10-06T18:43:31.708Z,16.90
2018-10-06T18:45:59.921Z,16.80
2018-10-06T18:48:28.232Z,16.80
2018-10-06T18:50:56.549Z,16.70
2018-10-06T18:53:24.832Z,16.70
2018-10-06T18:55:53.100Z,16.70
2018-10-06T18:58:21.433Z,16.60
2018-10-06T19:00:49.685Z,16.50
2018-10-06T19:03:18.009Z,16.40
2018-10-06T19:05:46.205Z,16.30
2018-10-06T19:08:14.456Z,16.20
2018-10-06T19:10:42.740Z,16.00
2018-10-06T19:13:10.970Z,15.90
2018-10-06T19:15:39.218Z,15.80
2018-10-06T19:18:07.458Z,15.70
2018-10-06T19:20:35.737Z,15.70
2018-10-06T19:23:03.986Z,15.60
2018-10-06T19:25:32.285Z,15.50
2018-10-06T19:28:00.477Z,15.50
2018-10-06T19:30:28.718Z,15.50
2018-10-06T19:32:56.946Z,15.40
2018-10-06T19:35:25.206Z,15.40
2018-10-06T19:37:53.484Z,15.40
2018-10-06T19:40:21.703Z,15.40
2018-10-06T19:42:49.953Z,15.40
2018-10-06T19:45:18.222Z,15.40
2018-10-06T19:47:46.458Z,15.40
2018-10-06T19:50:14.712Z,15.30
2018-10-06T19:52:42.958Z,15.40
2018-10-06T19:55:11.201Z,15.40
2018-10-06T19:57:39.476Z,15.30
2018-10-06T20:00:07.730Z,15.30
2018-10-06T20:02:35.984Z,15.20
2018-10-06T20:05:04.240Z,15.20
2018-10-06T20:07:32.576Z,15.20
2018-10-06T20:10:00.837Z,15.10
2018-10-06T20:12:29.190Z,15.00
2018-10-06T20:14:57.310Z,14.90
2018-10-06T20:17:25.548Z,14.90
2018-10-06T20:19:53.773Z,14.90
2018-10-06T20:22:22.013Z,14.80
2018-10-06T20:24:50.228Z,14.80
2018-10-06T20:27:18.452Z,14.70
2018-10-06T20:29:46.733Z,14.70
2018-10-06T20:32:14.991Z,14.70
2018-10-06T20:34:43.221Z,14.70
2018-10-06T20:37:11.461Z,14.60
2018-10-06T20:39:39.697Z,14.50
2018-10-06T20:42:07.924Z,14.40
2018-10-06T20:44:36.379Z,14.30
2018-10-06T20:47:04.605Z,14.20
2018-10-06T20:49:33.540Z,14.30
2018-10-06T20:52:01.837Z,14.30
2018-10-06T20:54:30.069Z,14.30
2018-10-06T20:56:58.298Z,14.30
2018-10-06T20:59:26.512Z,14.20
2018-10-06T21:01:54.755Z,14.20
2018-10-06T21:04:23.017Z,14.20
2018-10-06T21:06:51.234Z,14.30
2018-10-06T21:09:19.465Z,14.30
2018-10-06T21:11:47.765Z,14.30
2018-10-06T21:14:15.971Z,14.30
2018-10-06T21:16:44.194Z,14.30
2018-10-06T21:19:12.405Z,14.30
2018-10-06T21:21:40.617Z,14.30
2018-10-06T21:24:09.185Z,14.20
2018-10-06T21:26:37.399Z,14.10
2018-10-06T21:29:05.685Z,14.00
2018-10-06T21:31:33.839Z,13.80
2018-10-06T21:34:02.062Z,13.70
2018-10-06T21:36:30.270Z,13.60
2018-10-06T21:38:58.476Z,13.50
2018-10-06T21:41:26.716Z,13.50
2018-10-06T21:43:54.920Z,13.40
2018-10-06T21:46:23.132Z,13.30
2018-10-06T21:48:51.336Z,13.30
2018-10-06T21:51:19.541Z,13.20
2018-10-06T21:53:47.762Z,13.10
2018-10-06T21:56:15.972Z,13.10
2018-10-06T21:58:44.177Z,13.20
2018-10-06T22:01:13.617Z,13.30
2018-10-06T22:03:42.353Z,13.40
2018-10-06T22:06:10.709Z,13.20
2018-10-06T22:08:39.217Z,13.10
2018-10-06T22:11:07.432Z,13.00
2018-10-06T22:13:35.669Z,12.90
2018-10-06T22:16:03.907Z,12.80
2018-10-06T22:18:32.124Z,12.90
2018-10-06T22:21:00.336Z,12.80
2018-10-06T22:23:28.548Z,12.70
2018-10-06T22:25:56.786Z,12.60
2018-10-06T22:28:25.013Z,12.60
2018-10-06T22:30:53.242Z,12.60
2018-10-06T22:33:21.457Z,12.70
2018-10-06T22:35:49.685Z,12.70
2018-10-06T22:38:18.150Z,12.70
2018-10-06T22:40:46.384Z,12.90
2018-10-06T22:43:14.602Z,13.00
2018-10-06T22:45:42.851Z,13.00
2018-10-06T22:48:11.061Z,12.90
2018-10-06T22:50:39.303Z,12.90
2018-10-06T22:53:07.537Z,13.00
2018-10-06T22:55:35.751Z,12.90
2018-10-06T22:58:03.965Z,13.00
2018-10-06T23:00:32.193Z,13.10
2018-10-06T23:03:00.441Z,13.10
2018-10-06T23:05:28.643Z,13.10
2018-10-06T23:07:56.872Z,13.10
2018-10-06T23:10:25.094Z,13.10
2018-10-06T23:12:53.316Z,13.00
2018-10-06T23:15:21.561Z,12.90
2018-10-06T23:17:49.784Z,12.80
2018-10-06T23:20:18.010Z,12.80
2018-10-06T23:22:46.254Z,12.70
2018-10-06T23:25:14.473Z,12.60
2018-10-06T23:27:42.681Z,12.50
2018-10-06T23:30:10.925Z,12.60
2018-10-06T23:32:39.136Z,12.60
2018-10-06T23:35:07.376Z,12.60
2018-10-06T23:37:35.593Z,12.50
2018-10-06T23:40:03.829Z,12.30
2018-10-06T23:42:32.057Z,12.20
2018-10-06T23:45:00.277Z,12.10
2018-10-06T23:47:28.521Z,12.00
2018-10-06T23:49:56.738Z,11.90
2018-10-06T23:52:24.968Z,11.90
2018-10-06T23:54:53.177Z,11.90
2018-10-06T23:57:21.402Z,11.80
2018-10-06T23:59:49.614Z,11.70
